Time;durP1;ratioP1;P1;durP2;ratioP2;P2;SDS_P1;SDS_P2;PMS_P1;PMS_P2;Temp;Humidity;BMP_temperature;BMP_pressure;BME280_temperature;BME280_humidity;BME280_pressure;Samples;Min_cycle;Max_cycle;Signal;HPM_P1;HPM_P2
2021/12/09 00:00:07;;;;;;;32.25;16.97;;;;;;;7.87;83.17;100151.42;1824858;78;21397;-72
2021/12/09 00:02:36;;;;;;;35.28;16.90;;;;;;;7.88;83.31;100150.95;1824562;78;20908;-70
2021/12/09 00:05:04;;;;;;;30.23;18.45;;;;;;;7.86;83.30;100146.28;1825043;78;20887;-71
2021/12/09 00:07:31;;;;;;;44.48;18.95;;;;;;;7.85;83.46;100156.36;1824873;78;20947;-71
2021/12/09 00:09:58;;;;;;;36.30;16.55;;;;;;;7.86;83.76;100159.33;1824955;78;20852;-71
2021/12/09 00:12:27;;;;;;;26.42;17.40;;;;;;;7.89;84.02;100161.75;1825019;78;21866;-71
2021/12/09 00:14:55;;;;;;;34.33;16.90;;;;;;;7.94;83.97;100160.19;1824814;78;20974;-71
2021/12/09 00:17:22;;;;;;;30.77;16.42;;;;;;;7.99;84.13;100162.93;1824655;78;20947;-71
2021/12/09 00:19:49;;;;;;;35.95;17.15;;;;;;;8.03;84.11;100166.22;1824876;78;20931;-70
2021/12/09 00:22:16;;;;;;;36.77;19.27;;;;;;;8.04;84.14;100166.11;1825013;78;20962;-71
2021/12/09 00:24:42;;;;;;;34.13;18.77;;;;;;;8.07;84.38;100163.34;1825617;78;21121;-71
2021/12/09 00:27:09;;;;;;;39.83;17.07;;;;;;;8.15;84.29;100168.59;1828357;78;20848;-71
2021/12/09 00:29:36;;;;;;;31.10;17.70;;;;;;;8.19;84.11;100167.48;1825469;78;20891;-70
2021/12/09 00:32:04;;;;;;;31.62;15.58;;;;;;;8.19;84.04;100164.88;1825080;78;20939;-70
2021/12/09 00:34:34;;;;;;;36.53;17.85;;;;;;;8.18;84.12;100170.58;1824965;78;21006;-71
2021/12/09 00:37:17;;;;;;;32.23;16.15;;;;;;;8.15;84.14;100158.98;1825139;78;21570;-71
2021/12/09 00:39:33;;;;;;;37.00;17.60;;;;;;;8.14;84.49;100164.28;1822288;78;20883;-72
2021/12/09 00:42:00;;;;;;;41.05;18.52;;;;;;;8.17;84.67;100170.18;1824898;78;20875;-72
2021/12/09 00:44:28;;;;;;;38.08;20.27;;;;;;;8.17;84.66;100162.34;1824844;78;21374;-71
2021/12/09 00:46:55;;;;;;;38.80;17.48;;;;;;;8.17;84.85;100167.56;1824263;78;21144;-71
2021/12/09 00:49:21;;;;;;;34.73;17.55;;;;;;;8.18;84.73;100171.02;1821549;78;21511;-72
2021/12/09 00:51:49;;;;;;;31.00;17.12;;;;;;;8.12;84.66;100162.25;1821364;78;20915;-71
2021/12/09 00:54:16;;;;;;;32.38;17.42;;;;;;;8.05;84.94;100166.51;1821368;78;20923;-71
2021/12/09 00:56:43;;;;;;;37.73;18.40;;;;;;;8.01;85.25;100170.22;1821229;78;20888;-71
2021/12/09 00:59:10;;;;;;;39.63;17.02;;;;;;;7.98;85.49;100174.32;1821474;78;20923;-72
2021/12/09 01:01:37;;;;;;;33.67;17.45;;;;;;;7.97;85.71;100173.92;1821433;78;22034;-72
2021/12/09 01:04:04;;;;;;;34.05;17.12;;;;;;;7.95;85.91;100175.77;1821273;78;20914;-71
2021/12/09 01:06:31;;;;;;;36.85;17.55;;;;;;;7.95;86.18;100176.25;1821384;78;20896;-71
2021/12/09 01:08:58;;;;;;;35.30;18.15;;;;;;;7.96;86.39;100176.61;1821352;78;21409;-71
2021/12/09 01:11:25;;;;;;;30.80;16.75;;;;;;;7.97;86.52;100180.45;1821359;78;20927;-71
2021/12/09 01:13:51;;;;;;;26.50;15.55;;;;;;;7.97;86.58;100177.00;1794763;78;21749;-72
2021/12/09 01:16:19;;;;;;;33.08;18.20;;;;;;;7.96;86.64;100180.09;1789029;80;20946;-73
2021/12/09 01:18:46;;;;;;;32.42;17.00;;;;;;;7.94;86.93;100182.38;1789038;80;20986;-72
2021/12/09 01:21:13;;;;;;;35.55;18.02;;;;;;;7.92;87.02;100184.27;1788784;80;20887;-72
2021/12/09 01:23:41;;;;;;;31.40;19.00;;;;;;;7.89;87.12;100190.47;1789048;80;20844;-72
2021/12/09 01:26:09;;;;;;;33.02;18.45;;;;;;;7.89;87.23;100190.47;1789037;80;21550;-71
2021/12/09 01:28:55;;;;;;;32.33;18.27;;;;;;;7.91;87.41;100186.48;1788968;80;20927;-72
2021/12/09 01:31:25;;;;;;;29.80;16.12;;;;;;;7.96;87.51;100184.44;1787055;80;20892;-72
2021/12/09 01:33:51;;;;;;;31.77;17.23;;;;;;;8.02;87.71;100192.77;1788411;80;20860;-71
2021/12/09 01:36:19;;;;;;;35.58;18.85;;;;;;;8.10;87.82;100189.28;1789124;80;20918;-71
2021/12/09 01:38:46;;;;;;;33.67;19.65;;;;;;;8.18;87.63;100192.78;1789010;79;21153;-71
2021/12/09 01:41:13;;;;;;;31.17;18.80;;;;;;;8.20;87.29;100185.66;1789013;80;21023;-71
2021/12/09 01:43:40;;;;;;;35.75;19.67;;;;;;;8.22;87.19;100190.34;1789074;80;20923;-71
2021/12/09 01:46:12;;;;;;;34.00;19.55;;;;;;;8.21;87.08;100188.67;1788838;79;21484;-72
2021/12/09 01:48:40;;;;;;;31.97;18.45;;;;;;;8.21;87.16;100191.28;1792631;80;21540;-71
2021/12/09 01:51:07;;;;;;;33.85;19.80;;;;;;;8.25;87.10;100195.41;1794642;79;21530;-71
2021/12/09 01:53:34;;;;;;;33.73;18.82;;;;;;;8.26;86.79;100191.85;1794532;80;20876;-71
2021/12/09 01:56:04;;;;;;;38.42;18.20;;;;;;;8.22;86.74;100195.56;1794757;80;20879;-72
2021/12/09 01:58:32;;;;;;;38.38;18.48;;;;;;;8.21;86.98;100200.42;1797326;78;21157;-70
2021/12/09 02:00:59;;;;;;;34.92;19.10;;;;;;;8.24;87.08;100199.41;1796501;79;21369;-72
2021/12/09 02:03:26;;;;;;;42.75;20.30;;;;;;;8.29;87.27;100202.14;1794980;80;21537;-72
2021/12/09 02:05:53;;;;;;;39.88;19.32;;;;;;;8.37;87.27;100204.77;1794704;80;21435;-71
2021/12/09 02:08:21;;;;;;;40.17;20.23;;;;;;;8.41;87.22;100213.69;1794520;79;20859;-71
2021/12/09 02:10:47;;;;;;;43.78;22.45;;;;;;;8.48;87.40;100214.17;1794743;79;20923;-71
2021/12/09 02:13:15;;;;;;;44.20;20.85;;;;;;;8.53;87.14;100213.44;1794895;79;21391;-71
2021/12/09 02:15:42;;;;;;;40.73;20.40;;;;;;;8.58;87.10;100219.25;1794475;79;21127;-72
2021/12/09 02:18:11;;;;;;;42.80;20.43;;;;;;;8.60;86.71;100217.36;1794532;79;20947;-71
2021/12/09 02:20:40;;;;;;;48.70;19.62;;;;;;;8.62;86.68;100218.12;1794516;79;21451;-70
2021/12/09 02:23:11;;;;;;;42.05;21.97;;;;;;;8.60;86.59;100224.38;1795077;80;21424;-70
2021/12/09 02:25:44;;;;;;;37.23;18.85;;;;;;;8.61;86.88;100225.60;1794521;79;20856;-71
2021/12/09 02:28:09;;;;;;;47.35;22.30;;;;;;;8.66;86.95;100230.08;1794423;80;21063;-71
2021/12/09 02:30:36;;;;;;;42.03;20.50;;;;;;;8.69;86.78;100229.06;1794441;79;21531;-71
2021/12/09 02:33:03;;;;;;;43.10;21.60;;;;;;;8.70;86.62;100239.91;1794964;79;20935;-72
2021/12/09 02:35:30;;;;;;;39.05;20.15;;;;;;;8.67;86.54;100239.63;1794498;79;20863;-72
2021/12/09 02:37:56;;;;;;;44.40;21.62;;;;;;;8.65;86.46;100242.80;1794933;79;21044;-72
2021/12/09 02:40:23;;;;;;;40.40;20.62;;;;;;;8.64;86.46;100252.02;1794509;79;21124;-72
2021/12/09 02:42:50;;;;;;;36.98;20.23;;;;;;;8.62;86.59;100256.49;1794710;79;20860;-72
2021/12/09 02:45:17;;;;;;;38.10;20.55;;;;;;;8.61;86.70;100252.20;1794517;80;21464;-71
2021/12/09 02:47:44;;;;;;;40.28;21.20;;;;;;;8.59;86.82;100254.06;1794441;79;20999;-71
2021/12/09 02:50:11;;;;;;;41.08;21.35;;;;;;;8.61;87.05;100255.66;1794528;79;20891;-70
2021/12/09 02:52:39;;;;;;;42.93;21.97;;;;;;;8.67;87.25;100259.67;1794603;79;21587;-72
2021/12/09 02:55:07;;;;;;;48.25;23.55;;;;;;;8.70;87.13;100262.96;1794484;79;21409;-72
2021/12/09 02:57:34;;;;;;;43.68;22.82;;;;;;;8.69;86.99;100263.05;1794649;80;21465;-71
2021/12/09 03:02:48;;;;;;;39.13;20.70;;;;;;;8.68;87.16;100267.91;1797727;79;22662;-71
2021/12/09 03:05:15;;;;;;;46.10;22.07;;;;;;;8.64;87.20;100274.23;1758363;81;20998;-71
2021/12/09 03:07:42;;;;;;;47.03;22.67;;;;;;;8.63;87.21;100276.02;1758475;80;21783;-71
2021/12/09 03:10:24;;;;;;;38.13;22.65;;;;;;;8.64;87.49;100277.69;1758234;80;20908;-71
2021/12/09 03:12:56;;;;;;;35.73;19.75;;;;;;;8.66;87.58;100274.52;1758461;81;20908;-72
2021/12/09 03:15:23;;;;;;;37.48;19.95;;;;;;;8.73;87.91;100284.63;1758163;80;21474;-71
2021/12/09 03:17:50;;;;;;;41.33;22.90;;;;;;;8.79;87.76;100279.05;1758316;80;20944;-70
2021/12/09 03:20:19;;;;;;;46.73;21.77;;;;;;;8.79;87.57;100281.20;1758172;81;21137;-70
2021/12/09 03:22:48;;;;;;;41.37;22.40;;;;;;;8.80;87.84;100282.86;1758265;81;20932;-71
2021/12/09 03:25:16;;;;;;;51.30;23.60;;;;;;;8.86;87.90;100280.38;1758461;80;21441;-70
2021/12/09 03:27:43;;;;;;;39.73;20.10;;;;;;;8.90;87.64;100290.56;1758461;80;21370;-71
2021/12/09 03:30:12;;;;;;;44.95;22.80;;;;;;;8.93;87.61;100291.68;1760030;78;20774;-70
2021/12/09 03:32:40;;;;;;;34.10;20.10;;;;;;;8.97;87.69;100294.97;1742445;81;21447;-70
2021/12/09 03:35:07;;;;;;;39.75;21.50;;;;;;;9.00;87.55;100299.17;1758891;81;20936;-71
2021/12/09 03:37:35;;;;;;;35.20;20.02;;;;;;;9.03;87.60;100297.23;1758521;80;20974;-70
2021/12/09 03:40:04;;;;;;;38.23;20.32;;;;;;;9.05;87.43;100296.68;1758135;80;20888;-71
2021/12/09 03:42:32;;;;;;;37.75;20.82;;;;;;;9.05;87.39;100305.00;1758202;80;20927;-71
2021/12/09 03:45:00;;;;;;;43.45;20.70;;;;;;;9.07;87.68;100302.66;1758319;81;21696;-71
2021/12/09 03:47:29;;;;;;;39.95;18.82;;;;;;;9.07;87.42;100302.66;1758223;80;20943;-71
2021/12/09 03:49:56;;;;;;;34.95;20.15;;;;;;;9.05;87.32;100304.53;1758611;80;20943;-70
2021/12/09 03:52:23;;;;;;;34.63;19.73;;;;;;;9.00;87.40;100307.86;1758163;80;20927;-71
2021/12/09 03:54:50;;;;;;;31.37;18.40;;;;;;;9.01;87.71;100309.56;1758297;80;21398;-71
2021/12/09 03:57:17;;;;;;;30.48;18.75;;;;;;;9.02;87.77;100316.45;1758288;80;21093;-72
2021/12/09 03:59:44;;;;;;;33.48;18.98;;;;;;;9.00;87.75;100310.95;1739379;81;20892;-71
2021/12/09 04:02:12;;;;;;;27.00;15.88;;;;;;;9.02;88.01;100308.61;1758245;80;20892;-71
2021/12/09 04:04:39;;;;;;;35.73;19.30;;;;;;;9.05;88.00;100318.08;1759152;81;20964;-72
2021/12/09 04:07:06;;;;;;;32.25;18.90;;;;;;;9.02;88.09;100317.77;1758717;81;21481;-72
2021/12/09 04:09:32;;;;;;;38.50;19.25;;;;;;;9.03;88.23;100320.77;1758867;81;21096;-73
2021/12/09 04:11:59;;;;;;;37.60;19.87;;;;;;;9.05;88.23;100324.14;1758390;81;20951;-71
2021/12/09 04:14:26;;;;;;;35.65;19.98;;;;;;;9.06;88.24;100327.12;1758246;80;20980;-72
2021/12/09 04:16:56;;;;;;;32.05;18.73;;;;;;;9.11;88.39;100326.84;1757847;80;20900;-72
2021/12/09 04:19:23;;;;;;;28.62;17.52;;;;;;;9.17;88.53;100330.89;1757999;81;20916;-72
2021/12/09 04:21:50;;;;;;;26.62;17.73;;;;;;;9.21;88.43;100337.16;1757946;81;21114;-73
2021/12/09 04:24:20;;;;;;;31.73;20.32;;;;;;;9.23;88.44;100339.23;1758200;80;20967;-71
2021/12/09 04:26:50;;;;;;;28.38;16.02;;;;;;;9.28;88.64;100337.17;1758001;81;21449;-72
2021/12/09 04:29:17;;;;;;;27.98;16.23;;;;;;;9.35;88.61;100336.34;1758348;80;21460;-72
2021/12/09 04:31:44;;;;;;;29.67;18.55;;;;;;;9.43;88.54;100337.21;1758030;81;21048;-70
2021/12/09 04:34:11;;;;;;;32.85;18.65;;;;;;;9.46;88.38;100337.84;1758130;81;21573;-73
2021/12/09 04:36:38;;;;;;;30.08;18.35;;;;;;;9.50;88.22;100341.14;1757934;81;20912;-71
2021/12/09 04:39:05;;;;;;;32.08;18.73;;;;;;;9.52;87.82;100341.41;1758255;81;20964;-71
2021/12/09 04:41:32;;;;;;;26.95;17.73;;;;;;;9.53;87.65;100347.01;1758060;81;21382;-71
2021/12/09 04:43:59;;;;;;;28.73;16.93;;;;;;;9.50;87.24;100348.52;1758052;81;21461;-72
2021/12/09 04:46:26;;;;;;;23.87;16.17;;;;;;;9.49;87.28;100352.08;1757940;81;21140;-72
2021/12/09 04:48:53;;;;;;;25.57;16.80;;;;;;;9.47;87.09;100358.31;1758145;81;20939;-72
2021/12/09 04:51:19;;;;;;;22.52;15.68;;;;;;;9.44;87.10;100367.67;1757908;81;20887;-72
2021/12/09 04:53:47;;;;;;;25.75;15.63;;;;;;;9.44;87.28;100366.36;1758106;80;20932;-72
2021/12/09 04:56:14;;;;;;;22.17;14.00;;;;;;;9.45;87.32;100367.59;1757957;80;20875;-70
2021/12/09 04:58:41;;;;;;;22.90;15.38;;;;;;;9.47;87.38;100370.95;1758235;81;21418;-70
2021/12/09 05:01:08;;;;;;;21.02;14.43;;;;;;;9.50;87.31;100371.23;1757356;80;20940;-71
2021/12/09 05:03:37;;;;;;;22.42;14.58;;;;;;;9.50;87.16;100372.07;1747081;81;20897;-70
2021/12/09 05:06:04;;;;;;;21.48;15.10;;;;;;;9.50;86.95;100373.86;1746931;81;20901;-72
2021/12/09 05:08:33;;;;;;;20.65;14.00;;;;;;;9.50;86.78;100377.78;1744852;81;21339;-72
2021/12/09 05:11:07;;;;;;;19.00;13.18;;;;;;;9.48;86.75;100377.86;1744772;82;21165;-72
2021/12/09 05:13:32;;;;;;;18.80;12.93;;;;;;;9.48;86.80;100381.78;1733314;82;20878;-72
2021/12/09 05:16:00;;;;;;;18.82;13.32;;;;;;;9.47;86.77;100386.66;1744681;81;20933;-73
2021/12/09 05:18:28;;;;;;;22.00;14.90;;;;;;;9.48;86.71;100393.56;1744567;82;20936;-70
2021/12/09 05:20:55;;;;;;;21.45;14.80;;;;;;;9.49;86.61;100397.02;1744454;81;21015;-71
2021/12/09 05:23:22;;;;;;;23.50;15.65;;;;;;;9.48;86.75;100402.73;1744392;80;21065;-72
2021/12/09 05:25:49;;;;;;;23.02;15.43;;;;;;;9.49;86.75;100401.81;1744477;81;20921;-72
2021/12/09 05:28:17;;;;;;;21.90;15.60;;;;;;;9.50;86.66;100407.88;1744470;81;21485;-72
2021/12/09 05:33:33;;;;;;;24.77;15.35;;;;;;;9.47;86.40;100417.20;1744813;81;20849;-71
2021/12/09 05:36:02;;;;;;;24.72;15.25;;;;;;;9.44;86.48;100418.23;1744515;81;21205;-72
2021/12/09 05:38:29;;;;;;;17.30;11.63;;;;;;;9.43;86.59;100424.41;1744449;81;21046;-71
2021/12/09 05:40:56;;;;;;;18.70;13.95;;;;;;;9.41;86.62;100428.89;1744873;81;20920;-71
2021/12/09 05:43:23;;;;;;;23.52;13.43;;;;;;;9.41;86.71;100424.13;1744520;80;20890;-72
2021/12/09 05:45:50;;;;;;;18.73;11.57;;;;;;;9.41;86.72;100434.60;1744520;81;20890;-71
2021/12/09 05:48:17;;;;;;;18.35;11.80;;;;;;;9.42;86.76;100438.89;1744705;81;22125;-73
2021/12/09 05:50:45;;;;;;;12.53;8.85;;;;;;;9.44;86.75;100439.64;1744315;81;20990;-72
2021/12/09 05:53:14;;;;;;;13.53;10.58;;;;;;;9.44;86.63;100450.95;1734003;82;20916;-72
2021/12/09 05:55:43;;;;;;;13.65;8.70;;;;;;;9.42;86.27;100451.98;1744502;81;20904;-73
2021/12/09 05:58:13;;;;;;;16.67;7.65;;;;;;;9.40;86.09;100452.53;1744556;81;20999;-72
2021/12/09 06:00:39;;;;;;;9.65;6.42;;;;;;;9.39;85.90;100459.55;1744484;81;21161;-73
2021/12/09 06:03:07;;;;;;;8.15;6.60;;;;;;;9.36;85.71;100457.11;1753712;80;21480;-74
2021/12/09 06:05:35;;;;;;;15.60;7.65;;;;;;;9.32;85.62;100460.36;1757736;81;20987;-71
2021/12/09 06:08:03;;;;;;;15.75;6.65;;;;;;;9.33;85.66;100467.73;1757746;80;20940;-73
2021/12/09 06:10:34;;;;;;;17.90;9.18;;;;;;;9.32;85.38;100465.59;1757859;81;20873;-72
2021/12/09 06:13:01;;;;;;;7.95;5.75;;;;;;;9.31;85.18;100471.74;1757804;81;21792;-73
2021/12/09 06:15:28;;;;;;;9.55;5.92;;;;;;;9.29;84.94;100469.70;1757801;81;20913;-72
2021/12/09 06:17:56;;;;;;;9.65;6.42;;;;;;;9.29;84.87;100474.08;1757754;81;21011;-74
2021/12/09 06:20:25;;;;;;;10.90;6.83;;;;;;;9.25;84.50;100479.09;1757784;81;21021;-72
2021/12/09 06:22:52;;;;;;;9.85;6.12;;;;;;;9.22;84.35;100489.28;1757732;81;20877;-73
2021/12/09 06:25:20;;;;;;;11.48;6.10;;;;;;;9.18;84.30;100490.84;1757914;80;22113;-73
2021/12/09 06:27:51;;;;;;;10.63;6.47;;;;;;;9.13;84.30;100490.63;1757769;81;20915;-72
2021/12/09 06:30:19;;;;;;;8.63;4.62;;;;;;;9.10;84.36;100489.51;1758136;81;20932;-72
2021/12/09 06:32:46;;;;;;;11.00;6.08;;;;;;;9.10;84.19;100492.59;1757705;81;21465;-71
2021/12/09 06:35:13;;;;;;;10.88;6.87;;;;;;;9.08;84.16;100495.77;1758018;81;20936;-71
2021/12/09 06:37:44;;;;;;;9.13;6.03;;;;;;;9.09;84.23;100494.37;1760295;80;22113;-71
2021/12/09 06:40:09;;;;;;;9.50;5.42;;;;;;;9.10;84.20;100497.36;1758227;81;21421;-72
2021/12/09 06:42:36;;;;;;;6.05;5.05;;;;;;;9.14;84.09;100500.66;1757788;81;20944;-71
2021/12/09 06:45:07;;;;;;;6.95;5.70;;;;;;;9.12;83.82;100502.05;1757834;81;20999;-72
2021/12/09 06:47:34;;;;;;;5.03;4.33;;;;;;;9.12;83.77;100504.66;1757777;80;21402;-72
2021/12/09 06:50:01;;;;;;;4.05;3.45;;;;;;;9.12;83.33;100509.05;1757801;81;21547;-71
2021/12/09 06:52:29;;;;;;;6.75;5.12;;;;;;;9.09;83.20;100509.20;1757718;80;21441;-71
2021/12/09 06:54:56;;;;;;;6.42;4.62;;;;;;;9.06;83.26;100514.63;1757732;81;21081;-72
2021/12/09 06:57:24;;;;;;;7.90;4.55;;;;;;;9.07;83.27;100520.22;1757704;81;21335;-72
2021/12/09 06:59:51;;;;;;;8.10;5.65;;;;;;;9.08;83.21;100525.37;1757934;81;20932;-72
2021/12/09 07:02:17;;;;;;;8.35;4.55;;;;;;;9.10;83.27;100530.06;1754544;80;21457;-72
2021/12/09 07:04:45;;;;;;;8.83;5.08;;;;;;;9.10;83.02;100528.75;1744351;81;21085;-72
2021/12/09 07:07:13;;;;;;;5.50;3.60;;;;;;;9.08;82.87;100529.30;1744451;81;20912;-72
2021/12/09 07:09:40;;;;;;;3.95;2.90;;;;;;;9.07;82.61;100540.70;1744451;81;20940;-71
2021/12/09 07:12:08;;;;;;;2.55;1.95;;;;;;;9.05;82.39;100546.48;1744681;81;20897;-71
2021/12/09 07:14:35;;;;;;;5.80;2.85;;;;;;;9.02;82.05;100547.94;1744364;81;21143;-71
2021/12/09 07:17:05;;;;;;;3.30;3.00;;;;;;;8.99;82.06;100557.27;1744317;81;21476;-71
2021/12/09 07:19:35;;;;;;;8.48;5.30;;;;;;;9.01;82.17;100561.12;1744366;81;20881;-70
2021/12/09 07:22:04;;;;;;;6.62;3.37;;;;;;;9.02;82.24;100563.63;1744392;80;21451;-72
2021/12/09 07:24:32;;;;;;;7.55;3.90;;;;;;;9.03;82.19;100569.27;1744566;81;21018;-72
2021/12/09 07:26:59;;;;;;;6.62;4.05;;;;;;;9.04;82.15;100566.17;1744436;82;21150;-73
2021/12/09 07:29:27;;;;;;;5.92;3.27;;;;;;;9.06;82.06;100567.77;1744400;81;20988;-71
2021/12/09 07:31:54;;;;;;;6.97;3.62;;;;;;;9.08;81.88;100572.93;1744359;81;21106;-73
2021/12/09 07:34:21;;;;;;;5.37;4.30;;;;;;;9.06;81.89;100574.78;1744478;81;20928;-71
2021/12/09 07:36:48;;;;;;;9.23;5.45;;;;;;;9.06;82.00;100590.48;1744536;82;20984;-71
2021/12/09 07:39:15;;;;;;;6.80;5.08;;;;;;;9.07;81.97;100590.84;1744791;81;21856;-71
2021/12/09 07:41:43;;;;;;;6.78;5.45;;;;;;;9.05;82.10;100578.34;1744293;81;21010;-72
2021/12/09 07:44:10;;;;;;;11.38;7.20;;;;;;;9.05;82.20;100591.42;1744403;81;20928;-71
2021/12/09 07:46:37;;;;;;;10.08;6.40;;;;;;;9.05;82.39;100596.66;1744740;81;20984;-70
2021/12/09 07:49:06;;;;;;;7.87;5.87;;;;;;;9.06;82.45;100600.47;1744569;81;21015;-72
2021/12/09 07:51:34;;;;;;;9.78;5.87;;;;;;;9.09;82.40;100602.94;1744562;81;21142;-71
2021/12/09 07:54:02;;;;;;;9.40;6.25;;;;;;;9.08;82.23;100605.63;1744772;80;20924;-73
2021/12/09 07:56:30;;;;;;;5.95;5.35;;;;;;;9.06;82.23;100605.70;1744844;81;20873;-73
2021/12/09 07:58:57;;;;;;;10.70;7.40;;;;;;;9.07;82.19;100605.23;1744606;81;20941;-72
2021/12/09 08:01:23;;;;;;;10.50;7.58;;;;;;;9.08;82.09;100609.55;1744818;80;21051;-72
2021/12/09 08:03:51;;;;;;;29.12;21.10;;;;;;;9.09;81.89;100611.23;1754579;81;21106;-71
2021/12/09 08:06:17;;;;;;;14.13;12.53;;;;;;;9.09;81.66;100612.09;1758011;80;20881;-73
2021/12/09 08:08:45;;;;;;;7.83;7.12;;;;;;;9.10;81.44;100612.94;1759661;80;21081;-72
2021/12/09 08:11:11;;;;;;;9.23;5.67;;;;;;;9.09;81.16;100613.41;1741266;81;20893;-73
2021/12/09 08:13:38;;;;;;;5.67;4.42;;;;;;;9.09;80.65;100611.23;1758199;81;20978;-72
2021/12/09 08:16:06;;;;;;;7.03;4.78;;;;;;;9.07;80.27;100613.95;1757866;80;21543;-72
2021/12/09 08:18:43;;;;;;;11.35;10.20;;;;;;;9.05;80.25;100619.72;1758346;81;20896;-72
2021/12/09 08:21:02;;;;;;;5.30;4.55;;;;;;;9.04;80.41;100615.88;1757291;81;21410;-73
2021/12/09 08:23:29;;;;;;;7.78;5.30;;;;;;;9.06;80.05;100626.63;1758018;81;20971;-71
2021/12/09 08:25:58;;;;;;;6.60;4.28;;;;;;;9.06;80.01;100620.09;1758026;80;21453;-72
2021/12/09 08:28:25;;;;;;;4.65;4.15;;;;;;;9.09;79.64;100625.62;1758317;81;21851;-72
2021/12/09 08:30:52;;;;;;;5.10;3.58;;;;;;;9.09;79.46;100626.48;1757903;80;20853;-70
2021/12/09 08:33:21;;;;;;;5.28;4.55;;;;;;;9.11;79.23;100628.56;1758228;81;20940;-72
2021/12/09 08:35:48;;;;;;;4.70;3.75;;;;;;;9.13;79.06;100627.98;1757885;81;21457;-73
2021/12/09 08:38:14;;;;;;;4.22;3.42;;;;;;;9.14;78.87;100623.62;1758022;80;20849;-70
2021/12/09 08:40:43;;;;;;;8.00;7.40;;;;;;;9.15;78.87;100631.00;1757875;80;21986;-71
2021/12/09 08:43:11;;;;;;;6.50;4.05;;;;;;;9.17;78.83;100627.37;1757921;80;20888;-70
2021/12/09 08:45:39;;;;;;;7.65;3.40;;;;;;;9.21;78.67;100625.44;1757945;81;20880;-71
2021/12/09 08:48:06;;;;;;;4.87;3.00;;;;;;;9.23;78.51;100630.13;1758031;80;21432;-70
2021/12/09 08:50:34;;;;;;;4.37;3.52;;;;;;;9.23;78.14;100628.35;1757891;81;20896;-71
2021/12/09 08:53:05;;;;;;;9.23;5.05;;;;;;;9.25;77.94;100629.55;1758274;81;21180;-70
2021/12/09 08:55:33;;;;;;;5.80;4.28;;;;;;;9.25;77.91;100625.62;1757755;81;20904;-71
2021/12/09 08:58:00;;;;;;;5.12;3.52;;;;;;;9.25;77.94;100627.81;1758861;81;20912;-71
2021/12/09 09:00:30;;;;;;;5.80;3.77;;;;;;;9.27;77.93;100628.57;1758630;81;20979;-71
2021/12/09 09:02:56;;;;;;;6.87;4.55;;;;;;;9.30;78.00;100631.01;1755185;80;20968;-71
2021/12/09 09:05:23;;;;;;;7.85;5.15;;;;;;;9.36;77.99;100625.92;1744705;80;21460;-72
2021/12/09 09:07:50;;;;;;;9.18;5.15;;;;;;;9.46;77.99;100627.08;1744630;81;21000;-73
2021/12/09 09:10:21;;;;;;;6.80;5.25;;;;;;;9.59;77.82;100631.17;1744723;81;20940;-69
2021/12/09 09:12:48;;;;;;;5.72;4.53;;;;;;;9.71;77.37;100626.55;1744890;81;20917;-70
2021/12/09 09:15:17;;;;;;;5.15;3.62;;;;;;;9.83;77.19;100626.34;1744579;81;20877;-68
2021/12/09 09:17:44;;;;;;;6.85;3.70;;;;;;;9.92;76.83;100628.44;1744437;81;21118;-71
2021/12/09 09:20:14;;;;;;;6.70;3.52;;;;;;;9.99;76.56;100618.92;1744334;81;21455;-70
2021/12/09 09:22:41;;;;;;;3.42;3.00;;;;;;;10.03;76.23;100624.36;1744418;81;20893;-69
2021/12/09 09:25:11;;;;;;;6.03;3.90;;;;;;;10.07;75.82;100625.41;1744740;81;20949;-71
2021/12/09 09:27:38;;;;;;;5.72;4.22;;;;;;;10.09;75.48;100620.05;1744175;81;20933;-71
2021/12/09 09:30:06;;;;;;;6.72;4.10;;;;;;;10.10;75.36;100623.07;1744425;81;21506;-72
2021/12/09 09:32:35;;;;;;;6.55;3.67;;;;;;;10.15;74.99;100627.57;1744364;81;20892;-72
2021/12/09 09:35:01;;;;;;;5.97;3.95;;;;;;;10.16;74.80;100627.48;1744452;80;21435;-72
2021/12/09 09:37:29;;;;;;;4.05;2.75;;;;;;;10.20;74.39;100628.61;1744678;80;20980;-73
2021/12/09 09:39:56;;;;;;;4.67;2.95;;;;;;;10.23;73.93;100628.45;1744816;82;20956;-73
2021/12/09 09:45:03;;;;;;;5.50;2.62;;;;;;;10.31;73.29;100638.87;1670524;83;20955;-71
2021/12/09 09:47:31;;;;;;;4.65;2.83;;;;;;;10.36;72.97;100631.59;1711171;83;20938;-73
2021/12/09 09:49:59;;;;;;;3.98;3.00;;;;;;;10.40;72.72;100634.86;1711913;83;21141;-71
2021/12/09 09:52:26;;;;;;;5.78;3.15;;;;;;;10.42;72.82;100631.69;1711357;82;20935;-71
2021/12/09 09:54:55;;;;;;;4.83;3.08;;;;;;;10.47;72.73;100640.59;1711815;82;21128;-71
2021/12/09 09:57:22;;;;;;;3.52;2.98;;;;;;;10.53;72.73;100636.30;1711496;82;21528;-70
2021/12/09 09:59:49;;;;;;;3.65;2.50;;;;;;;10.61;72.47;100643.25;1711981;82;20926;-72
2021/12/09 10:02:16;;;;;;;3.20;2.90;;;;;;;10.61;72.00;100639.79;1711812;82;21536;-70
2021/12/09 10:04:57;;;;;;;6.20;3.33;;;;;;;10.58;72.21;100642.97;1708140;83;20995;-70
2021/12/09 10:07:20;;;;;;;6.83;3.30;;;;;;;10.61;72.40;100636.69;1708896;82;21156;-72
2021/12/09 10:09:49;;;;;;;2.80;2.50;;;;;;;10.67;72.43;100645.51;1707574;84;20950;-71
2021/12/09 10:12:16;;;;;;;4.47;4.00;;;;;;;10.62;72.34;100637.53;1707756;84;21004;-71
2021/12/09 10:14:48;;;;;;;4.05;2.60;;;;;;;10.58;72.62;100643.41;1707586;83;20898;-70
2021/12/09 10:17:23;;;;;;;2.42;1.45;;;;;;;10.54;72.84;100638.00;1707711;84;21510;-70
2021/12/09 10:19:59;;;;;;;3.35;1.80;;;;;;;10.48;73.15;100639.67;1708459;82;21159;-72
2021/12/09 10:22:32;;;;;;;3.72;1.90;;;;;;;10.43;73.60;100641.73;1752697;80;21006;-73
2021/12/09 10:25:00;;;;;;;6.15;1.98;;;;;;;10.42;74.02;100638.71;1752688;81;20947;-70
2021/12/09 10:27:33;;;;;;;2.77;2.37;;;;;;;10.38;74.18;100648.52;1752723;82;20949;-71
2021/12/09 10:30:17;;;;;;;8.13;3.80;;;;;;;10.31;74.45;100646.73;1752870;80;21543;-71
2021/12/09 10:32:43;;;;;;;5.85;3.42;;;;;;;10.24;74.68;100644.06;1752772;80;21113;-71
2021/12/09 10:35:19;;;;;;;4.30;3.90;;;;;;;10.16;74.86;100647.14;1752637;81;21369;-71
2021/12/09 10:37:47;;;;;;;6.00;4.75;;;;;;;10.12;75.20;100645.62;1750986;80;20892;-72
2021/12/09 10:40:22;;;;;;;5.25;4.42;;;;;;;10.13;75.50;100645.16;1752001;82;20919;-72
2021/12/09 10:43:03;;;;;;;5.85;5.25;;;;;;;10.12;75.49;100645.62;1752789;81;20923;-72
2021/12/09 10:45:34;;;;;;;8.43;5.35;;;;;;;10.10;75.77;100644.03;1752644;81;21119;-71
2021/12/09 10:56:09;;;;;;;6.50;5.08;;;;;;;10.23;75.39;100646.32;1752730;81;20888;-73
2021/12/09 10:58:41;;;;;;;7.80;5.25;;;;;;;10.22;75.22;100652.95;1752682;82;21149;-71
2021/12/09 11:01:14;;;;;;;9.15;6.45;;;;;;;10.20;75.26;100653.50;1752533;81;20900;-73
2021/12/09 11:03:45;;;;;;;10.00;6.37;;;;;;;10.15;75.27;100653.77;1754038;81;21559;-73
2021/12/09 11:06:25;;;;;;;9.48;6.17;;;;;;;10.11;75.48;100653.09;1758924;81;20888;-73
2021/12/09 11:08:54;;;;;;;10.10;8.15;;;;;;;10.09;75.59;100655.42;1756798;80;20935;-72
2021/12/09 11:11:32;;;;;;;15.30;10.28;;;;;;;10.11;75.77;100650.95;1757926;80;21807;-70
2021/12/09 11:14:07;;;;;;;13.68;11.83;;;;;;;10.13;75.73;100661.71;1759316;80;20987;-71
2021/12/09 11:16:42;;;;;;;10.60;9.10;;;;;;;10.11;75.68;100660.12;1751954;81;20852;-72
2021/12/09 11:19:24;;;;;;;;;;;;;;;10.06;75.55;100660.38;1760376;81;21406;-73
2021/12/09 11:21:59;;;;;;;11.05;7.87;;;;;;;10.00;75.63;100662.03;1757389;80;20105;-72
2021/12/09 11:24:22;;;;;;;10.77;6.27;;;;;;;9.86;76.04;100668.06;1757135;81;21091;-72
2021/12/09 11:29:29;;;;;;;6.22;4.40;;;;;;;9.77;76.93;100672.52;1758006;81;20881;-73
2021/12/09 11:32:14;;;;;;;9.28;5.15;;;;;;;9.75;77.09;100673.89;1757950;80;20968;-71
2021/12/09 11:34:59;;;;;;;10.98;5.37;;;;;;;9.72;77.33;100674.08;1757905;81;20924;-72
2021/12/09 11:40:02;;;;;;;10.85;7.17;;;;;;;9.68;77.67;100676.48;1758075;81;20916;-72
2021/12/09 11:42:37;;;;;;;9.85;5.67;;;;;;;9.69;77.68;100674.70;1757102;80;20839;-71
2021/12/09 11:44:59;;;;;;;11.60;7.08;;;;;;;9.63;77.84;100675.91;1757291;81;20975;-71
2021/12/09 11:47:26;;;;;;;14.53;8.18;;;;;;;9.57;78.14;100683.25;1758083;80;21034;-72
2021/12/09 11:49:53;;;;;;;13.28;8.63;;;;;;;9.53;78.54;100686.48;1757939;81;21073;-71